createdAt,value
2023-04-10T00:01:02.153Z,100870.91
2023-04-10T00:03:30.342Z,100868.03
2023-04-10T00:05:59.814Z,100869.72
2023-04-10T00:08:27.860Z,100871.41
2023-04-10T00:10:57.198Z,100875.78
2023-04-10T00:13:25.387Z,100870.22
2023-04-10T00:15:53.471Z,100873.75
2023-04-10T00:18:21.557Z,100866.84
2023-04-10T00:20:49.602Z,100868.84
2023-04-10T00:23:19.101Z,100858.25
2023-04-10T00:25:48.667Z,100857.56
2023-04-10T00:28:17.432Z,100869.56
2023-04-10T00:30:45.758Z,100868.06
2023-04-10T00:33:14.068Z,100862.84
2023-04-10T00:35:42.251Z,100865.88
2023-04-10T00:38:10.404Z,100864.19
2023-04-10T00:40:39.873Z,100867.38
2023-04-10T00:43:07.934Z,100868.25
2023-04-10T00:45:36.180Z,100876.84
2023-04-10T00:48:04.805Z,100884.56
2023-04-10T00:50:32.950Z,100885.03
2023-04-10T00:53:01.027Z,100879.66
2023-04-10T00:55:29.100Z,100874.25
2023-04-10T00:57:59.296Z,100880.16
2023-04-10T01:00:27.268Z,100871.88
2023-04-10T01:02:56.044Z,100870.88
2023-04-10T01:05:24.697Z,100872.03
2023-04-10T01:07:59.886Z,100872.22
2023-04-10T01:10:30.975Z,100861.97
2023-04-10T01:13:07.930Z,100858.44
2023-04-10T01:15:40.160Z,100858.78
2023-04-10T01:18:11.280Z,100853.53
2023-04-10T01:20:41.429Z,100855.41
2023-04-10T01:23:30.928Z,100858.78
2023-04-10T01:26:01.400Z,100862.81
2023-04-10T01:28:45.140Z,100863.47
2023-04-10T01:31:16.997Z,100865.16
2023-04-10T01:33:47.993Z,100863.31
2023-04-10T01:36:20.389Z,100867.66
2023-04-10T01:38:49.909Z,100865.66
2023-04-10T01:41:20.018Z,100864.81
2023-04-10T01:43:50.883Z,100863.94
2023-04-10T01:46:21.888Z,100866.84
2023-04-10T01:48:51.110Z,100863.47
2023-04-10T01:51:20.000Z,100866.16
2023-04-10T01:53:49.378Z,100871.56
2023-04-10T01:56:23.169Z,100877.81
2023-04-10T01:58:52.132Z,100875.97
2023-04-10T02:01:29.670Z,100868.03
2023-04-10T02:03:59.135Z,100869.22
2023-04-10T02:06:30.215Z,100871.94
2023-04-10T02:09:00.464Z,100871.06
2023-04-10T02:11:33.272Z,100872.09
2023-04-10T02:14:02.125Z,100869.38
2023-04-10T02:16:54.213Z,100863.16
2023-04-10T02:19:24.046Z,100869.56
2023-04-10T02:21:52.817Z,100865.53
2023-04-10T02:24:21.892Z,100864.19
2023-04-10T02:26:51.042Z,100867.25
2023-04-10T02:29:19.431Z,100873.97
2023-04-10T02:31:48.028Z,100873.34
2023-04-10T02:34:17.504Z,100861.38
2023-04-10T02:36:45.562Z,100873.16
2023-04-10T02:39:14.123Z,100877.53
2023-04-10T02:41:51.911Z,100865.53
2023-04-10T02:44:20.040Z,100869.09
2023-04-10T02:46:48.362Z,100863.88
2023-04-10T02:49:18.123Z,100859.31
2023-04-10T02:51:46.287Z,100869.75
2023-04-10T02:54:14.434Z,100865.19
2023-04-10T02:56:44.138Z,100862.69
2023-04-10T02:59:12.286Z,100866.38
2023-04-10T03:01:40.929Z,100865.19
2023-04-10T03:04:09.386Z,100860.66
2023-04-10T03:06:42.404Z,100856.97
2023-04-10T03:09:10.510Z,100858.78
2023-04-10T03:11:38.752Z,100856.97
2023-04-10T03:14:09.868Z,100858.78
2023-04-10T03:16:38.120Z,100853.22
2023-04-10T03:19:06.333Z,100853.38
2023-04-10T03:21:34.494Z,100845.13
2023-04-10T03:24:04.054Z,100848.19
2023-04-10T03:26:33.373Z,100861.66
2023-04-10T03:29:01.894Z,100865.69
2023-04-10T03:31:30.613Z,100868.91
2023-04-10T03:34:01.752Z,100874.78
2023-04-10T03:36:29.947Z,100874.97
2023-04-10T03:38:58.242Z,100873.09
2023-04-10T03:41:27.761Z,100868.56
2023-04-10T03:43:56.604Z,100862.13
2023-04-10T03:46:25.753Z,100865.50
2023-04-10T03:48:54.362Z,100863.34
2023-04-10T03:51:24.812Z,100864.19
2023-04-10T03:53:53.644Z,100859.44
2023-04-10T03:56:22.757Z,100863.47
2023-04-10T03:58:52.574Z,100866.50
2023-04-10T04:01:22.245Z,100866.81
2023-04-10T04:04:16.912Z,100868.00
2023-04-10T04:07:03.809Z,100867.47
2023-04-10T04:09:48.709Z,100864.59
2023-04-10T04:12:21.439Z,100864.91
2023-04-10T04:15:07.102Z,100862.88
2023-04-10T04:17:49.235Z,100867.06
2023-04-10T04:20:38.310Z,100868.38
2023-04-10T04:23:24.095Z,100873.63
2023-04-10T04:26:10.864Z,100867.88
2023-04-10T04:28:57.709Z,100863.97
2023-04-10T04:32:05.416Z,100863.81
2023-04-10T04:34:53.799Z,100861.44
2023-04-10T04:37:50.187Z,100858.06
2023-04-10T04:40:36.983Z,100861.81
2023-04-10T04:43:25.219Z,100864.50
2023-04-10T04:46:00.750Z,100861.81
2023-04-10T04:48:41.752Z,100863.47
2023-04-10T04:51:21.874Z,100858.75
2023-04-10T04:54:03.524Z,100857.38
2023-04-10T04:56:54.208Z,100859.53
2023-04-10T04:59:54.181Z,100861.72
2023-04-10T05:03:00.697Z,100868.25
2023-04-10T05:05:38.077Z,100864.00
2023-04-10T05:08:17.795Z,100866.53
2023-04-10T05:11:01.148Z,100872.41
2023-04-10T05:13:52.719Z,100872.38
2023-04-10T05:16:53.113Z,100869.81
2023-04-10T05:19:41.474Z,100868.91
2023-04-10T05:22:20.742Z,100873.56
2023-04-10T05:25:14.229Z,100874.34
2023-04-10T05:28:01.464Z,100872.41
2023-04-10T05:30:48.220Z,100871.31
2023-04-10T05:33:35.109Z,100872.28
2023-04-10T05:36:10.251Z,100872.38
2023-04-10T05:39:02.933Z,100869.59
2023-04-10T05:41:40.517Z,100881.88
2023-04-10T05:44:28.960Z,100869.56
2023-04-10T05:47:06.748Z,100871.81
2023-04-10T05:49:49.783Z,100879.47
2023-04-10T05:52:17.780Z,100879.38
2023-04-10T05:55:22.544Z,100869.94
2023-04-10T05:58:16.629Z,100861.53
2023-04-10T06:01:14.840Z,100869.38
2023-04-10T06:03:43.045Z,100868.59
2023-04-10T06:06:12.290Z,100870.91
2023-04-10T06:08:41.878Z,100869.31
2023-04-10T06:11:11.704Z,100872.66
2023-04-10T06:13:41.220Z,100878.16
2023-04-10T06:16:10.086Z,100875.47
2023-04-10T06:18:38.721Z,100875.91
2023-04-10T06:21:07.172Z,100877.03
2023-04-10T06:23:35.982Z,100871.88
2023-04-10T06:26:04.662Z,100877.94
2023-04-10T06:28:34.213Z,100872.97
2023-04-10T06:31:04.809Z,100882.31
2023-04-10T06:33:37.107Z,100879.25
2023-04-10T06:36:08.340Z,100869.06
2023-04-10T06:38:42.694Z,100880.19
2023-04-10T06:41:11.864Z,100875.59
2023-04-10T06:43:41.627Z,100890.56
2023-04-10T06:46:09.877Z,100885.88
2023-04-10T06:48:38.130Z,100881.66
2023-04-10T06:51:06.434Z,100886.25
2023-04-10T06:53:34.549Z,100887.03
2023-04-10T06:56:03.577Z,100892.25
2023-04-10T06:58:32.151Z,100893.22
2023-04-10T07:01:04.632Z,100888.88
2023-04-10T07:03:34.041Z,100892.25
2023-04-10T07:06:03.407Z,100895.22
2023-04-10T07:08:31.681Z,100897.94
2023-04-10T07:10:59.712Z,100896.72
2023-04-10T07:13:27.809Z,100896.38
2023-04-10T07:15:56.814Z,100898.59
2023-04-10T07:18:26.341Z,100897.56
2023-04-10T07:20:54.419Z,100893.44
2023-04-10T07:23:22.797Z,100895.34
2023-04-10T07:25:51.824Z,100903.47
2023-04-10T07:28:19.931Z,100895.50
2023-04-10T07:30:48.015Z,100901.59
2023-04-10T07:33:16.169Z,100900.75
2023-04-10T07:35:45.813Z,100896.16
2023-04-10T07:38:14.390Z,100898.22
2023-04-10T07:40:42.580Z,100897.56
2023-04-10T07:43:10.786Z,100896.53
2023-04-10T07:45:38.976Z,100895.69
2023-04-10T07:48:07.768Z,100893.66
2023-04-10T07:50:36.281Z,100889.06
2023-04-10T07:53:08.222Z,100900.75
2023-04-10T07:55:39.195Z,100887.03
2023-04-10T07:58:07.420Z,100888.69
2023-04-10T08:00:35.607Z,100893.06
2023-04-10T08:03:03.949Z,100894.94
2023-04-10T08:05:32.236Z,100897.88
2023-04-10T08:08:00.668Z,100893.66
2023-04-10T08:10:30.189Z,100895.16
2023-04-10T08:12:58.634Z,100893.28
2023-04-10T08:15:26.758Z,100894.78
2023-04-10T08:17:54.993Z,100889.16
2023-04-10T08:20:23.117Z,100893.34
2023-04-10T08:22:51.231Z,100890.91
2023-04-10T08:25:19.342Z,100899.09
2023-04-10T08:27:48.802Z,100892.84
2023-04-10T08:30:16.898Z,100889.00
2023-04-10T08:32:45.103Z,100892.59
2023-04-10T08:35:13.197Z,100893.88
2023-04-10T08:37:41.497Z,100884.31
2023-04-10T08:40:10.090Z,100892.31
2023-04-10T08:42:38.200Z,100884.69
2023-04-10T08:45:08.455Z,100876.47
2023-04-10T08:47:38.055Z,100892.72
2023-04-10T08:50:08.165Z,100878.84
2023-04-10T08:52:39.307Z,100881.63
2023-04-10T08:55:09.346Z,100878.25
2023-04-10T08:57:40.605Z,100870.56
2023-04-10T09:02:44.631Z,100869.38
2023-04-10T09:05:14.258Z,100868.41
2023-04-10T09:07:42.495Z,100867.59
2023-04-10T09:10:11.144Z,100869.94
2023-04-10T09:12:46.714Z,100869.56
2023-04-10T09:15:16.379Z,100865.66
2023-04-10T09:17:57.849Z,100864.63
2023-04-10T09:20:27.076Z,100871.47
2023-04-10T09:22:55.173Z,100866.63
2023-04-10T09:25:30.839Z,100873.53
2023-04-10T09:28:02.894Z,100866.88
2023-04-10T09:30:36.344Z,100859.56
2023-04-10T09:33:04.964Z,100862.94
2023-04-10T09:35:39.530Z,100857.50
2023-04-10T09:38:18.142Z,100858.13
2023-04-10T09:40:46.684Z,100853.34
2023-04-10T09:43:24.688Z,100859.63
2023-04-10T09:45:54.622Z,100857.91
2023-04-10T09:48:23.333Z,100849.81
2023-04-10T09:50:51.708Z,100851.31
2023-04-10T09:53:20.454Z,100858.09
2023-04-10T09:55:49.249Z,100852.03
2023-04-10T09:58:18.040Z,100843.06
2023-04-10T10:00:46.698Z,100842.00
2023-04-10T10:03:17.388Z,100850.78
2023-04-10T10:05:46.408Z,100843.81
2023-04-10T10:08:15.115Z,100835.56
2023-04-10T10:10:47.112Z,100840.53
2023-04-10T10:13:18.310Z,100838.91
2023-04-10T10:15:51.153Z,100836.78
2023-04-10T10:18:23.956Z,100844.13
2023-04-10T10:20:52.260Z,100839.38
2023-04-10T10:23:20.817Z,100837.34
2023-04-10T10:25:50.153Z,100840.16
2023-04-10T10:28:19.433Z,100836.81
2023-04-10T10:30:48.752Z,100838.41
2023-04-10T10:33:17.098Z,100829.00
2023-04-10T10:35:47.610Z,100828.16
2023-04-10T10:38:16.595Z,100818.38
2023-04-10T10:40:50.614Z,100813.28
2023-04-10T10:43:24.578Z,100811.56
2023-04-10T10:45:56.116Z,100802.78
2023-04-10T10:48:24.266Z,100803.78
2023-04-10T10:50:56.532Z,100793.16
2023-04-10T10:53:37.422Z,100804.13
2023-04-10T10:56:23.743Z,100809.31
2023-04-10T10:58:52.900Z,100796.44
2023-04-10T11:01:22.464Z,100800.75
2023-04-10T11:03:51.150Z,100805.34
2023-04-10T11:06:21.117Z,100799.94
2023-04-10T11:08:50.221Z,100801.47
2023-04-10T11:11:19.803Z,100787.16
2023-04-10T11:14:06.668Z,100788.78
2023-04-10T11:16:44.978Z,100791.84
2023-04-10T11:19:15.830Z,100782.50
2023-04-10T11:22:05.943Z,100787.19
2023-04-10T11:24:52.720Z,100789.13
2023-04-10T11:27:39.921Z,100790.47
2023-04-10T11:30:23.002Z,100784.84
2023-04-10T11:32:52.709Z,100795.19
2023-04-10T11:35:21.413Z,100793.28
2023-04-10T11:37:49.600Z,100790.97
2023-04-10T11:40:17.629Z,100802.41
2023-04-10T11:42:45.673Z,100796.19
2023-04-10T11:45:26.730Z,100787.97
2023-04-10T11:47:57.060Z,100781.44
2023-04-10T11:50:25.190Z,100783.28
2023-04-10T11:52:54.628Z,100788.13
2023-04-10T11:55:37.900Z,100784.53
2023-04-10T11:58:06.023Z,100782.09
2023-04-10T12:00:34.105Z,100778.97
2023-04-10T12:03:03.673Z,100782.22
2023-04-10T12:05:46.263Z,100784.31
2023-04-10T12:08:14.405Z,100783.22
2023-04-10T12:10:48.525Z,100783.06
2023-04-10T12:13:26.077Z,100775.59
2023-04-10T12:15:54.520Z,100777.38
2023-04-10T12:18:23.994Z,100777.78
2023-04-10T12:20:56.302Z,100774.00
2023-04-10T12:23:24.900Z,100780.06
2023-04-10T12:25:53.398Z,100778.38
2023-04-10T12:28:21.801Z,100787.03
2023-04-10T12:30:50.589Z,100781.97
2023-04-10T12:33:23.809Z,100773.00
2023-04-10T12:35:51.901Z,100784.22
2023-04-10T12:38:34.760Z,100791.84
2023-04-10T12:41:03.275Z,100787.84
2023-04-10T12:43:31.912Z,100781.50
2023-04-10T12:46:00.111Z,100788.03
2023-04-10T12:48:29.711Z,100791.72
2023-04-10T12:50:57.956Z,100793.97
2023-04-10T12:53:26.475Z,100798.09
2023-04-10T12:55:59.455Z,100800.50
2023-04-10T12:58:28.861Z,100801.88
2023-04-10T13:00:57.636Z,100794.81
2023-04-10T13:03:25.860Z,100806.88
2023-04-10T13:05:55.953Z,100806.13
2023-04-10T13:08:24.324Z,100804.72
2023-04-10T13:10:52.617Z,100811.28
2023-04-10T13:13:20.745Z,100803.13
2023-04-10T13:15:49.204Z,100810.50
2023-04-10T13:18:17.271Z,100812.44
2023-04-10T13:20:45.325Z,100803.66
2023-04-10T13:23:14.727Z,100798.63
2023-04-10T13:25:43.116Z,100802.22
2023-04-10T13:28:11.548Z,100798.66
2023-04-10T13:30:40.141Z,100812.06
2023-04-10T13:33:08.820Z,100803.47
2023-04-10T13:35:37.125Z,100809.97
2023-04-10T13:38:05.185Z,100803.50
2023-04-10T13:40:34.709Z,100802.19
2023-04-10T13:43:02.728Z,100810.78
2023-04-10T13:45:30.933Z,100804.94
2023-04-10T13:47:59.124Z,100809.09
2023-04-10T13:50:27.257Z,100801.13
2023-04-10T13:52:55.455Z,100812.00
2023-04-10T13:55:23.525Z,100806.97
2023-04-10T13:57:53.461Z,100807.19
2023-04-10T14:00:22.175Z,100801.31
2023-04-10T14:02:50.370Z,100801.53
2023-04-10T14:05:18.688Z,100801.91
2023-04-10T14:07:46.749Z,100800.59
2023-04-10T14:10:14.832Z,100789.25
2023-04-10T14:12:42.926Z,100786.91
2023-04-10T14:15:12.706Z,100779.53
2023-04-10T14:17:40.939Z,100778.28
2023-04-10T14:20:11.453Z,100784.94
2023-04-10T14:22:39.570Z,100780.78
2023-04-10T14:25:13.099Z,100782.72
2023-04-10T14:27:41.968Z,100772.91
2023-04-10T14:30:10.611Z,100772.91
2023-04-10T14:32:41.095Z,100767.41
2023-04-10T14:35:09.639Z,100766.50
2023-04-10T14:37:37.997Z,100763.13
2023-04-10T14:40:06.631Z,100770.00
2023-04-10T14:42:34.913Z,100765.22
2023-04-10T14:45:03.190Z,100753.75
2023-04-10T14:47:31.330Z,100761.47
2023-04-10T14:50:00.839Z,100759.97
2023-04-10T14:52:28.959Z,100758.94
2023-04-10T14:54:57.014Z,100764.97
2023-04-10T14:57:25.692Z,100756.34
2023-04-10T14:59:53.934Z,100753.34
2023-04-10T15:02:22.189Z,100765.41
2023-04-10T15:04:50.724Z,100759.75
2023-04-10T15:07:20.199Z,100762.25
2023-04-10T15:09:48.711Z,100755.72
2023-04-10T15:12:16.970Z,100754.44
2023-04-10T15:14:45.002Z,100746.69
2023-04-10T15:17:13.310Z,100748.41
2023-04-10T15:19:41.545Z,100744.44
2023-04-10T15:22:09.789Z,100742.56
2023-04-10T15:24:50.009Z,100735.50
2023-04-10T15:27:20.219Z,100735.28
2023-04-10T15:29:48.284Z,100738.44
2023-04-10T15:32:16.393Z,100740.69
2023-04-10T15:34:45.282Z,100731.69
2023-04-10T15:37:13.437Z,100737.72
2023-04-10T15:39:42.978Z,100735.16
2023-04-10T15:42:11.091Z,100742.38
2023-04-10T15:44:39.162Z,100740.88
2023-04-10T15:47:07.332Z,100735.66
2023-04-10T15:49:38.450Z,100739.22
2023-04-10T15:52:07.215Z,100739.81
2023-04-10T15:54:35.697Z,100733.63
2023-04-10T15:57:05.276Z,100732.13
2023-04-10T15:59:34.395Z,100730.84
2023-04-10T16:02:02.534Z,100729.78
2023-04-10T16:04:31.412Z,100728.50
2023-04-10T16:06:59.808Z,100726.81
2023-04-10T16:09:28.164Z,100725.28
2023-04-10T16:11:57.953Z,100725.66
2023-04-10T16:14:27.501Z,100726.81
2023-04-10T16:16:55.641Z,100724.94
2023-04-10T16:19:24.042Z,100727.84
2023-04-10T16:21:52.707Z,100718.69
2023-04-10T16:24:20.767Z,100724.75
2023-04-10T16:26:48.853Z,100719.13
2023-04-10T16:29:19.896Z,100723.91
2023-04-10T16:31:49.494Z,100723.72
2023-04-10T16:34:17.748Z,100723.25
2023-04-10T16:36:46.011Z,100724.22
2023-04-10T16:39:14.200Z,100723.97
2023-04-10T16:41:42.287Z,100713.16
2023-04-10T16:44:10.485Z,100718.09
2023-04-10T16:46:39.014Z,100721.38
2023-04-10T16:49:08.599Z,100718.50
2023-04-10T16:51:36.867Z,100718.09
2023-04-10T16:54:05.190Z,100722.03
2023-04-10T16:56:33.298Z,100715.13
2023-04-10T16:59:01.388Z,100719.91
2023-04-10T17:01:29.526Z,100714.22
2023-04-10T17:03:57.682Z,100720.84
2023-04-10T17:06:27.227Z,100719.84
2023-04-10T17:08:55.467Z,100720.38
2023-04-10T17:11:23.764Z,100722.47
2023-04-10T17:13:51.932Z,100712.38
2023-04-10T17:16:20.043Z,100712.97
2023-04-10T17:18:48.148Z,100707.09
2023-04-10T17:21:16.300Z,100715.97
2023-04-10T17:23:45.906Z,100715.25
2023-04-10T17:26:14.822Z,100710.09
2023-04-10T17:28:44.930Z,100709.91
2023-04-10T17:31:13.397Z,100709.38
2023-04-10T17:33:43.147Z,100713.75
2023-04-10T17:36:12.503Z,100718.31
2023-04-10T17:38:41.258Z,100710.84
2023-04-10T17:41:10.955Z,100716.53
2023-04-10T17:43:39.019Z,100708.78
2023-04-10T17:46:07.652Z,100712.53
2023-04-10T17:48:36.267Z,100712.91
2023-04-10T17:51:05.639Z,100708.69
2023-04-10T17:53:33.695Z,100704.50
2023-04-10T17:56:01.881Z,100705.53
2023-04-10T17:58:31.658Z,100704.69
2023-04-10T18:00:59.808Z,100704.56
2023-04-10T18:03:27.962Z,100692.94
2023-04-10T18:05:56.118Z,100697.31
2023-04-10T18:08:24.262Z,100704.25
2023-04-10T18:10:52.474Z,100693.22
2023-04-10T18:13:20.488Z,100699.28
2023-04-10T18:15:49.929Z,100692.00
2023-04-10T18:18:18.013Z,100695.56
2023-04-10T18:20:48.699Z,100704.50
2023-04-10T18:23:16.807Z,100707.88
2023-04-10T18:25:52.740Z,100703.50
2023-04-10T18:28:20.992Z,100697.22
2023-04-10T18:30:50.603Z,100692.84
2023-04-10T18:33:23.915Z,100697.22
2023-04-10T18:35:52.123Z,100695.56
2023-04-10T18:38:20.584Z,100697.41
2023-04-10T18:40:48.862Z,100700.13
2023-04-10T18:43:16.905Z,100701.34
2023-04-10T18:45:45.150Z,100691.06
2023-04-10T18:48:14.718Z,100689.75
2023-04-10T18:50:42.754Z,100680.34
2023-04-10T18:53:11.177Z,100674.28
2023-04-10T18:55:39.617Z,100678.00
2023-04-10T18:58:07.936Z,100678.38
2023-04-10T19:00:36.093Z,100676.03
2023-04-10T19:03:04.378Z,100681.66
2023-04-10T19:05:33.949Z,100678.97
2023-04-10T19:08:04.612Z,100676.41
2023-04-10T19:10:33.283Z,100673.72
2023-04-10T19:13:01.324Z,100677.66
2023-04-10T19:15:29.714Z,100679.50
2023-04-10T19:17:57.873Z,100675.97
2023-04-10T19:20:51.027Z,100677.00
2023-04-10T19:23:15.456Z,100670.53
2023-04-10T19:25:43.866Z,100673.91
2023-04-10T19:28:12.013Z,100675.78
2023-04-10T19:30:40.074Z,100663.28
2023-04-10T19:33:08.133Z,100669.34
2023-04-10T19:35:36.391Z,100673.09
2023-04-10T19:38:04.502Z,100675.78
2023-04-10T19:40:34.010Z,100667.00
2023-04-10T19:43:02.657Z,100672.41
2023-04-10T19:45:32.576Z,100668.03
2023-04-10T19:48:01.172Z,100672.78
2023-04-10T19:50:29.684Z,100666.06
2023-04-10T19:52:58.136Z,100668.16
2023-04-10T19:55:26.614Z,100658.53
2023-04-10T19:57:56.204Z,100664.97
2023-04-10T20:00:24.324Z,100661.41
2023-04-10T20:02:52.770Z,100661.59
2023-04-10T20:05:21.191Z,100664.31
2023-04-10T20:07:49.488Z,100661.81
2023-04-10T20:10:17.608Z,100664.69
2023-04-10T20:12:45.733Z,100663.84
2023-04-10T20:15:15.558Z,100668.41
2023-04-10T20:17:43.726Z,100663.19
2023-04-10T20:20:13.573Z,100658.81
2023-04-10T20:22:41.713Z,100662.34
2023-04-10T20:25:10.141Z,100664.22
2023-04-10T20:27:38.477Z,100666.09
2023-04-10T20:30:07.522Z,100657.97
2023-04-10T20:32:37.108Z,100657.13
2023-04-10T20:35:05.717Z,100658.81
2023-04-10T20:37:33.816Z,100658.81
2023-04-10T20:40:01.883Z,100659.66
2023-04-10T20:42:29.978Z,100659.00
2023-04-10T20:44:58.014Z,100660.00
2023-04-10T20:47:26.130Z,100664.78
2023-04-10T20:49:55.631Z,100661.25
2023-04-10T20:52:23.749Z,100660.41
2023-04-10T20:54:51.905Z,100669.06
2023-04-10T20:57:19.958Z,100663.19
2023-04-10T20:59:48.070Z,100658.13
2023-04-10T21:02:18.162Z,100663.94
2023-04-10T21:04:46.459Z,100665.13
2023-04-10T21:07:15.928Z,100658.03
2023-04-10T21:09:44.051Z,100662.97
2023-04-10T21:12:12.092Z,100660.25
2023-04-10T21:14:40.208Z,100660.94
2023-04-10T21:17:08.250Z,100670.53
2023-04-10T21:19:37.278Z,100661.25
2023-04-10T21:22:05.309Z,100662.91
2023-04-10T21:24:34.850Z,100664.41
2023-04-10T21:27:03.079Z,100674.34
2023-04-10T21:29:31.222Z,100663.38
2023-04-10T21:31:59.464Z,100670.66
2023-04-10T21:34:27.552Z,100657.13
2023-04-10T21:36:55.655Z,100666.91
2023-04-10T21:39:23.862Z,100656.94
2023-04-10T21:41:53.339Z,100658.81
2023-04-10T21:44:21.532Z,100655.28
2023-04-10T21:46:49.621Z,100654.78
2023-04-10T21:49:17.616Z,100646.03
2023-04-10T21:51:45.749Z,100653.50
2023-04-10T21:54:13.820Z,100647.44
2023-04-10T21:56:42.040Z,100646.75
2023-04-10T21:59:11.657Z,100642.59
2023-04-10T22:01:41.743Z,100644.63
2023-04-10T22:04:10.113Z,100648.91
2023-04-10T22:06:38.340Z,100645.34
2023-04-10T22:09:06.450Z,100645.75
2023-04-10T22:11:34.899Z,100657.75
2023-04-10T22:14:15.708Z,100653.38
2023-04-10T22:16:46.947Z,100648.97
2023-04-10T22:19:15.135Z,100654.09
2023-04-10T22:21:43.294Z,100649.53
2023-04-10T22:24:11.441Z,100650.56
2023-04-10T22:26:42.145Z,100644.13
2023-04-10T22:29:10.360Z,100646.47
2023-04-10T22:31:38.423Z,100636.28
2023-04-10T22:34:08.521Z,100639.88
2023-04-10T22:36:36.964Z,100640.88
2023-04-10T22:39:05.091Z,100642.38
2023-04-10T22:41:33.560Z,100643.19
2023-04-10T22:44:01.640Z,100645.75
2023-04-10T22:46:29.827Z,100641.53
2023-04-10T22:48:58.012Z,100642.56
2023-04-10T22:51:28.096Z,100638.16
2023-04-10T22:53:56.254Z,100639.56
2023-04-10T22:56:26.718Z,100636.22
2023-04-10T22:58:55.174Z,100632.00
2023-04-10T23:01:23.466Z,100632.56
2023-04-10T23:03:54.156Z,100628.53
2023-04-10T23:06:22.394Z,100622.97
2023-04-10T23:08:51.892Z,100619.59
2023-04-10T23:11:19.929Z,100625.34
2023-04-10T23:13:48.888Z,100621.00
2023-04-10T23:16:17.146Z,100624.06
2023-04-10T23:18:45.377Z,100630.84
2023-04-10T23:21:13.457Z,100632.72
2023-04-10T23:23:41.530Z,100628.50
2023-04-10T23:26:12.529Z,100626.81
2023-04-10T23:28:40.637Z,100625.69
2023-04-10T23:31:09.512Z,100628.22
2023-04-10T23:33:37.711Z,100628.56
2023-04-10T23:36:06.192Z,100637.88
2023-04-10T23:38:34.304Z,100631.47
2023-04-10T23:41:03.086Z,100631.47
2023-04-10T23:43:32.628Z,100634.34
2023-04-10T23:46:00.742Z,100633.50
2023-04-10T23:48:28.874Z,100624.38
2023-04-10T23:51:03.597Z,100618.97
2023-04-10T23:53:31.719Z,100620.47
2023-04-10T23:55:59.949Z,100613.06
2023-04-10T23:58:28.068Z,100621.78
